Time;durP1;ratioP1;P1;durP2;ratioP2;P2;SDS_P1;SDS_P2;PMS_P1;PMS_P2;Temp;Humidity;BMP_temperature;BMP_pressure;BME280_temperature;BME280_humidity;BME280_pressure;Samples;Min_cycle;Max_cycle;Signal;HPM_P1;HPM_P2
2022/03/15 00:02:13;;;;;;;22.23;13.85;;;4.90;47.80;;;;;;5075407;28;20035;-74
2022/03/15 00:04:40;;;;;;;25.75;14.70;;;4.80;47.70;;;;;;5076275;28;20040;-82
2022/03/15 00:07:15;;;;;;;26.50;14.75;;;4.80;47.80;;;;;;5076671;28;20055;-74
2022/03/15 00:09:42;;;;;;;26.20;14.27;;;4.80;47.70;;;;;;5096720;28;20032;-82
2022/03/15 00:12:15;;;;;;;24.52;13.52;;;4.80;47.70;;;;;;5094982;28;20036;-82
2022/03/15 00:14:42;;;;;;;21.58;13.15;;;4.80;47.60;;;;;;5094861;28;20485;-81
2022/03/15 00:17:10;;;;;;;21.48;12.88;;;4.80;47.60;;;;;;5083657;28;20036;-74
2022/03/15 00:19:36;;;;;;;23.98;12.73;;;4.80;47.70;;;;;;5074975;28;20033;-74
2022/03/15 00:22:06;;;;;;;;;;;4.80;47.80;;;;;;5075013;28;20032;-82
2022/03/15 00:24:33;;;;;;;19.52;12.20;;;4.70;46.50;;;;;;5075463;28;19958;-74
2022/03/15 00:27:03;;;;;;;21.33;12.65;;;4.70;47.60;;;;;;5075911;28;20087;-81
2022/03/15 00:29:32;;;;;;;23.50;13.07;;;4.70;47.80;;;;;;5075285;28;20033;-81
2022/03/15 00:31:58;;;;;;;23.98;12.68;;;4.70;47.90;;;;;;5057913;28;20551;-81
2022/03/15 00:34:40;;;;;;;23.85;12.32;;;4.60;48.10;;;;;;5057229;28;20037;-74
2022/03/15 00:37:06;;;;;;;22.15;12.90;;;4.60;48.30;;;;;;5093384;28;20040;-81
2022/03/15 00:39:32;;;;;;;25.23;13.50;;;4.50;48.30;;;;;;5096156;28;20440;-75
2022/03/15 00:41:58;;;;;;;26.63;14.45;;;4.50;48.30;;;;;;5111224;28;20040;-82
2022/03/15 00:44:28;;;;;;;25.00;12.80;;;4.50;48.30;;;;;;5089171;28;20111;-74
2022/03/15 00:46:55;;;;;;;21.08;12.60;;;4.50;48.40;;;;;;5075906;28;20133;-74
2022/03/15 00:49:23;;;;;;;21.90;12.77;;;4.40;48.40;;;;;;5093521;28;20035;-82
2022/03/15 00:51:53;;;;;;;21.88;12.98;;;4.40;48.50;;;;;;5094238;28;20452;-82
2022/03/15 00:54:27;;;;;;;24.02;13.88;;;4.40;48.20;;;;;;5094414;28;20043;-74
2022/03/15 00:56:54;;;;;;;23.08;12.98;;;4.40;48.80;;;;;;5093216;28;20043;-77
2022/03/15 00:59:20;;;;;;;23.10;14.05;;;4.30;48.90;;;;;;5094600;28;20032;-78
2022/03/15 01:01:47;;;;;;;20.52;12.35;;;4.30;49.00;;;;;;5077282;28;20084;-81
2022/03/15 01:04:14;;;;;;;22.92;12.65;;;4.30;48.90;;;;;;5093562;28;20047;-74
2022/03/15 01:06:42;;;;;;;21.48;12.48;;;4.30;49.00;;;;;;5069863;28;20405;-81
2022/03/15 01:09:11;;;;;;;27.20;12.68;;;4.30;48.90;;;;;;5073336;28;20082;-74
2022/03/15 01:11:43;;;;;;;25.70;12.57;;;4.30;48.90;;;;;;5074974;28;20128;-75
2022/03/15 01:14:13;;;;;;;22.23;11.90;;;4.30;48.90;;;;;;5073083;28;20040;-74
2022/03/15 01:16:39;;;;;;;21.48;12.27;;;4.30;49.00;;;;;;5086169;28;20094;-81
2022/03/15 01:19:07;;;;;;;21.42;12.00;;;4.30;48.70;;;;;;5064834;28;20093;-74
2022/03/15 01:21:39;;;;;;;19.65;11.68;;;4.10;48.70;;;;;;5073214;28;21133;-81
2022/03/15 01:24:27;;;;;;;21.73;12.05;;;4.00;48.80;;;;;;5074381;28;20486;-74
2022/03/15 01:26:54;;;;;;;22.50;12.43;;;3.90;48.80;;;;;;5073304;28;20094;-82
2022/03/15 01:29:22;;;;;;;20.92;13.07;;;3.70;48.20;;;;;;5076565;28;20293;-76
2022/03/15 01:31:48;;;;;;;21.52;12.68;;;3.70;48.70;;;;;;5060177;28;20446;-82
2022/03/15 01:34:15;;;;;;;;;;;3.70;48.20;;;;;;5093487;28;20551;-74
2022/03/15 01:36:45;;;;;;;21.67;12.82;;;3.70;48.00;;;;;;5093352;28;20014;-74
2022/03/15 01:39:12;;;;;;;22.08;12.50;;;3.70;48.50;;;;;;5090892;28;20040;-74
2022/03/15 01:44:33;;;;;;;21.30;11.82;;;3.70;48.50;;;;;;5073710;28;20059;-74
2022/03/15 01:47:00;;;;;;;22.52;11.88;;;3.70;48.60;;;;;;5073085;28;20033;-82
2022/03/15 01:49:29;;;;;;;20.00;11.75;;;3.70;48.40;;;;;;5086671;28;20028;-74
2022/03/15 01:51:55;;;;;;;19.92;11.15;;;3.70;48.60;;;;;;5094333;28;20036;-82
2022/03/15 01:54:22;;;;;;;21.88;11.85;;;3.60;48.20;;;;;;5076229;28;20028;-81
2022/03/15 01:56:54;;;;;;;21.98;12.20;;;3.70;48.80;;;;;;5092134;28;20055;-82
2022/03/15 01:59:20;;;;;;;20.15;11.43;;;3.60;48.80;;;;;;5093636;28;20031;-77
2022/03/15 02:01:46;;;;;;;19.63;11.65;;;3.60;49.00;;;;;;5092584;28;20523;-82
2022/03/15 02:04:18;;;;;;;22.02;11.68;;;3.50;49.10;;;;;;5092169;28;20530;-74
2022/03/15 02:06:44;;;;;;;21.88;11.98;;;3.50;49.40;;;;;;5091954;28;20438;-74
2022/03/15 02:09:30;;;;;;;20.45;12.18;;;3.50;49.50;;;;;;5075470;28;20068;-78
2022/03/15 02:11:59;;;;;;;21.00;12.35;;;3.40;49.80;;;;;;5092541;28;20041;-74
2022/03/15 02:14:26;;;;;;;25.25;13.15;;;3.40;49.70;;;;;;5093197;28;20077;-80
2022/03/15 02:16:53;;;;;;;20.95;11.75;;;3.30;49.80;;;;;;5091773;28;20047;-82
2022/03/15 02:19:23;;;;;;;22.10;11.68;;;3.40;49.90;;;;;;5092148;28;20036;-74
2022/03/15 02:21:50;;;;;;;23.88;12.20;;;3.30;50.00;;;;;;5093045;28;20060;-82
2022/03/15 02:24:19;;;;;;;22.52;12.75;;;3.30;50.00;;;;;;5092984;28;20444;-81
2022/03/15 02:26:45;;;;;;;22.77;12.23;;;3.30;50.20;;;;;;5086805;28;20385;-81
2022/03/15 02:29:20;;;;;;;;;;;3.30;50.20;;;;;;5073129;28;20060;-74
2022/03/15 02:31:49;;;;;;;23.05;12.40;;;3.20;49.30;;;;;;5072167;28;19928;-74
2022/03/15 02:34:17;;;;;;;22.92;12.35;;;3.20;49.30;;;;;;5079722;28;20097;-74
2022/03/15 02:37:04;;;;;;;23.20;12.65;;;3.10;50.10;;;;;;5056155;28;20040;-82
2022/03/15 02:39:33;;;;;;;20.52;12.68;;;3.10;50.00;;;;;;5055786;28;20025;-82
2022/03/15 02:41:59;;;;;;;22.15;11.85;;;3.20;50.20;;;;;;5055453;28;20489;-82
2022/03/15 02:44:25;;;;;;;;;;;3.10;50.20;;;;;;5072843;28;20544;-81
2022/03/15 02:47:12;;;;;;;20.98;11.55;;;3.20;49.60;;;;;;5069233;28;19920;-82
2022/03/15 02:49:47;;;;;;;25.55;12.60;;;3.10;50.20;;;;;;5091541;28;20096;-74
2022/03/15 02:52:25;;;;;;;24.13;12.85;;;3.10;50.50;;;;;;5092077;28;20401;-74
2022/03/15 02:55:02;;;;;;;19.88;10.85;;;3.10;50.60;;;;;;5083902;28;20489;-82
2022/03/15 02:57:31;;;;;;;22.48;12.52;;;3.00;50.70;;;;;;5072063;28;20394;-82
2022/03/15 03:00:21;;;;;;;22.38;12.48;;;3.00;50.60;;;;;;5072051;28;20032;-82
2022/03/15 03:02:54;;;;;;;18.33;11.15;;;3.00;50.90;;;;;;5073477;28;20149;-74
2022/03/15 03:05:21;;;;;;;21.80;11.32;;;3.00;50.80;;;;;;5083003;28;20036;-82
2022/03/15 03:07:48;;;;;;;22.88;11.38;;;3.00;50.80;;;;;;5075795;28;20036;-74
2022/03/15 03:10:16;;;;;;;21.20;11.75;;;3.00;51.00;;;;;;5091881;28;20517;-74
2022/03/15 03:13:03;;;;;;;23.27;11.70;;;2.90;51.10;;;;;;5092323;28;20032;-74
2022/03/15 03:15:32;;;;;;;18.40;10.18;;;3.00;51.30;;;;;;5088396;28;20493;-81
2022/03/15 03:17:58;;;;;;;21.30;11.43;;;2.90;51.00;;;;;;5072166;28;20048;-81
2022/03/15 03:20:32;;;;;;;20.35;10.98;;;2.80;51.10;;;;;;5071127;28;20033;-74
2022/03/15 03:23:19;;;;;;;17.55;10.82;;;2.90;51.40;;;;;;5071764;28;20071;-82
2022/03/15 03:25:45;;;;;;;20.27;10.63;;;2.80;51.60;;;;;;5032661;28;20048;-73
2022/03/15 03:28:13;;;;;;;21.45;11.00;;;2.80;51.60;;;;;;5033565;28;20148;-77
2022/03/15 03:31:00;;;;;;;20.80;11.02;;;2.70;51.10;;;;;;5033695;28;20116;-74
2022/03/15 03:33:42;;;;;;;18.10;10.57;;;2.80;51.70;;;;;;5067408;28;20062;-81
2022/03/15 03:36:09;;;;;;;20.13;11.10;;;2.70;51.40;;;;;;5036678;28;20135;-81
2022/03/15 03:38:52;;;;;;;19.10;11.20;;;2.70;51.50;;;;;;5038064;28;20044;-74
2022/03/15 03:41:18;;;;;;;21.52;12.75;;;2.70;51.70;;;;;;5054117;28;20068;-81
2022/03/15 03:43:44;;;;;;;21.42;11.85;;;2.70;51.60;;;;;;5037885;28;20037;-81
2022/03/15 03:46:10;;;;;;;23.33;11.32;;;2.70;51.50;;;;;;5053985;28;20053;-74
2022/03/15 03:48:37;;;;;;;19.83;10.75;;;2.70;51.40;;;;;;5054447;28;20053;-74
2022/03/15 03:51:04;;;;;;;23.55;11.50;;;2.70;51.40;;;;;;5054242;28;20520;-74
2022/03/15 03:53:31;;;;;;;21.88;11.65;;;2.70;51.60;;;;;;5039279;28;20032;-74
2022/03/15 03:55:57;;;;;;;25.52;12.40;;;2.70;51.80;;;;;;5037324;28;20048;-82
2022/03/15 03:58:34;;;;;;;19.92;11.55;;;2.70;51.80;;;;;;5037612;28;20036;-81
2022/03/15 04:01:03;;;;;;;21.45;11.50;;;2.60;52.20;;;;;;5050360;28;20052;-76
2022/03/15 04:03:31;;;;;;;23.77;12.60;;;2.60;51.80;;;;;;5058498;28;20063;-81
2022/03/15 04:06:04;;;;;;;22.85;12.77;;;2.60;51.70;;;;;;5074846;28;20044;-80
2022/03/15 04:08:32;;;;;;;28.63;12.15;;;2.60;51.70;;;;;;5097183;28;20090;-74
2022/03/15 04:10:59;;;;;;;21.38;11.32;;;2.70;52.00;;;;;;5094747;28;20059;-74
2022/03/15 04:13:33;;;;;;;23.25;12.50;;;2.70;51.90;;;;;;5088145;28;20040;-81
2022/03/15 04:16:06;;;;;;;21.27;12.27;;;2.70;51.80;;;;;;5057991;28;20028;-81
2022/03/15 04:18:34;;;;;;;20.13;11.20;;;2.70;51.70;;;;;;5076831;28;20035;-81
2022/03/15 04:21:00;;;;;;;19.27;10.85;;;2.70;51.70;;;;;;5072178;28;20400;-74
2022/03/15 04:23:32;;;;;;;20.75;9.95;;;2.70;51.60;;;;;;5091894;28;20124;-80
2022/03/15 04:25:58;;;;;;;18.40;10.07;;;2.70;51.60;;;;;;5074083;28;20052;-80
2022/03/15 04:28:27;;;;;;;17.77;9.77;;;2.70;51.60;;;;;;5058432;28;20469;-74
2022/03/15 04:30:53;;;;;;;23.83;9.75;;;2.60;51.40;;;;;;5057595;28;20040;-74
2022/03/15 04:33:29;;;;;;;17.70;9.30;;;2.60;51.40;;;;;;5070881;28;20044;-74
2022/03/15 04:35:55;;;;;;;19.80;11.10;;;2.60;51.40;;;;;;5094412;28;20042;-80
2022/03/15 04:38:24;;;;;;;22.80;11.40;;;2.50;51.40;;;;;;5078193;28;20048;-74
2022/03/15 04:40:54;;;;;;;22.40;11.35;;;2.50;51.60;;;;;;5094114;28;20028;-74
2022/03/15 04:43:20;;;;;;;40.95;15.98;;;2.60;51.50;;;;;;5092690;28;20028;-74
2022/03/15 04:46:03;;;;;;;26.08;13.13;;;2.50;51.50;;;;;;5095141;28;20036;-74
2022/03/15 04:48:56;;;;;;;18.90;10.50;;;2.50;51.60;;;;;;5094809;28;20127;-80
2022/03/15 04:51:24;;;;;;;22.15;10.98;;;2.40;51.70;;;;;;5092534;28;20135;-80
2022/03/15 04:53:58;;;;;;;22.63;10.98;;;2.40;51.90;;;;;;5095772;28;20489;-74
2022/03/15 04:56:28;;;;;;;23.67;11.90;;;2.40;52.00;;;;;;5095062;28;20047;-74
2022/03/15 04:58:54;;;;;;;24.70;11.98;;;2.30;52.10;;;;;;5077403;28;20209;-74
2022/03/15 05:01:23;;;;;;;27.58;12.70;;;2.40;52.20;;;;;;5093694;28;20040;-74
2022/03/15 05:03:50;;;;;;;23.77;13.40;;;2.30;52.10;;;;;;5093739;28;20124;-80
2022/03/15 05:06:17;;;;;;;26.33;13.77;;;2.30;52.20;;;;;;5092239;28;20079;-80
2022/03/15 05:08:49;;;;;;;;;;;2.30;52.20;;;;;;5094781;28;20081;-79
2022/03/15 05:11:22;;;;;;;24.30;11.50;;;2.20;51.60;;;;;;5107218;28;20377;-80
2022/03/15 05:13:53;;;;;;;24.67;11.32;;;2.20;52.10;;;;;;5074058;28;20072;-80
2022/03/15 05:16:30;;;;;;;28.52;14.10;;;2.20;52.10;;;;;;5073298;28;20659;-74
2022/03/15 05:18:57;;;;;;;27.98;14.45;;;2.10;52.20;;;;;;5057197;28;20051;-74
2022/03/15 05:21:40;;;;;;;29.73;13.48;;;2.10;52.20;;;;;;5081373;28;20535;-74
2022/03/15 05:24:10;;;;;;;25.08;13.57;;;2.10;52.50;;;;;;5073460;28;20032;-80
2022/03/15 05:26:36;;;;;;;30.02;13.48;;;2.10;52.40;;;;;;5073204;28;20452;-80
2022/03/15 05:29:09;;;;;;;22.50;11.40;;;2.10;52.30;;;;;;5074008;28;20036;-80
2022/03/15 05:31:35;;;;;;;25.42;11.45;;;2.10;53.10;;;;;;5089490;28;20111;-80
2022/03/15 05:34:07;;;;;;;22.95;11.25;;;2.10;52.30;;;;;;5093662;28;20085;-74
2022/03/15 05:36:34;;;;;;;25.48;11.93;;;2.00;52.40;;;;;;5072069;28;20048;-79
2022/03/15 05:39:10;;;;;;;24.40;11.02;;;1.90;52.70;;;;;;5073175;28;20071;-80
2022/03/15 05:41:42;;;;;;;38.60;13.23;;;1.90;52.10;;;;;;5073794;28;20371;-74
2022/03/15 05:44:13;;;;;;;44.63;12.98;;;2.00;52.40;;;;;;5073162;28;20040;-80
2022/03/15 05:46:39;;;;;;;31.38;11.40;;;2.00;52.30;;;;;;5056408;28;20067;-80
2022/03/15 05:49:07;;;;;;;29.30;11.85;;;2.00;52.10;;;;;;5074856;28;20028;-79
2022/03/15 05:51:39;;;;;;;20.45;11.00;;;2.00;52.00;;;;;;5092009;28;20040;-75
2022/03/15 05:54:10;;;;;;;31.10;11.63;;;2.10;52.10;;;;;;5092983;28;20039;-80
2022/03/15 05:56:39;;;;;;;21.13;10.48;;;2.10;52.10;;;;;;5093936;28;20040;-74
2022/03/15 05:59:06;;;;;;;24.80;11.35;;;2.10;52.10;;;;;;5094551;28;20036;-74
2022/03/15 06:01:38;;;;;;;24.83;11.35;;;2.10;52.10;;;;;;5074403;28;20032;-74
2022/03/15 06:04:07;;;;;;;21.48;12.20;;;2.20;52.20;;;;;;5056255;28;20033;-80
2022/03/15 06:06:37;;;;;;;27.05;11.40;;;2.20;52.10;;;;;;5083966;28;20416;-74
2022/03/15 06:09:07;;;;;;;26.08;12.05;;;2.20;51.60;;;;;;5085128;28;20036;-74
2022/03/15 06:11:35;;;;;;;23.73;12.70;;;2.20;52.00;;;;;;5073571;28;20440;-74
2022/03/15 06:14:03;;;;;;;31.17;12.50;;;2.30;52.20;;;;;;5073810;28;20090;-80
2022/03/15 06:16:29;;;;;;;32.22;13.23;;;2.30;52.10;;;;;;5072084;28;20162;-74
2022/03/15 06:18:59;;;;;;;37.80;16.85;;;2.40;52.00;;;;;;5073354;28;20024;-73
2022/03/15 06:21:25;;;;;;;41.78;19.20;;;2.60;52.00;;;;;;5082760;28;20067;-74
2022/03/15 06:24:03;;;;;;;39.17;18.23;;;2.70;51.90;;;;;;5092950;28;20031;-74
2022/03/15 06:26:31;;;;;;;29.17;15.15;;;2.80;51.90;;;;;;5075531;28;20033;-74
2022/03/15 06:29:05;;;;;;;37.25;15.95;;;2.90;51.60;;;;;;5078979;28;20032;-79
2022/03/15 06:31:54;;;;;;;34.50;16.60;;;3.10;51.70;;;;;;5071914;28;20501;-79
2022/03/15 06:34:23;;;;;;;36.42;18.83;;;3.20;51.60;;;;;;5055461;28;20024;-74
2022/03/15 06:36:50;;;;;;;33.00;17.05;;;3.30;51.60;;;;;;5083873;28;20416;-80
2022/03/15 06:39:19;;;;;;;27.55;14.70;;;3.40;51.70;;;;;;5087925;28;20115;-80
2022/03/15 06:41:48;;;;;;;34.25;18.48;;;3.50;51.80;;;;;;5091003;28;20047;-74
2022/03/15 06:44:23;;;;;;;37.47;20.77;;;3.60;51.70;;;;;;5092439;28;20405;-80
2022/03/15 06:46:51;;;;;;;44.35;21.08;;;3.70;51.80;;;;;;5059686;28;20470;-74
2022/03/15 06:49:23;;;;;;;34.00;17.15;;;3.80;51.10;;;;;;5074119;28;20036;-79
2022/03/15 06:51:50;;;;;;;32.35;15.40;;;4.00;52.50;;;;;;5082203;28;20097;-80
2022/03/15 06:54:17;;;;;;;34.33;15.85;;;4.10;51.80;;;;;;5093558;28;20083;-81
2022/03/15 06:56:44;;;;;;;34.78;18.50;;;4.30;51.70;;;;;;5093155;28;20044;-81
2022/03/15 06:59:11;;;;;;;36.88;19.48;;;4.50;51.50;;;;;;5061646;28;20037;-74
2022/03/15 07:01:37;;;;;;;41.97;21.00;;;4.70;51.50;;;;;;5071601;28;20052;-74
2022/03/15 07:04:17;;;;;;;43.15;22.30;;;4.90;51.40;;;;;;5071810;28;20082;-81
2022/03/15 07:06:44;;;;;;;34.67;18.63;;;5.10;51.30;;;;;;5075874;28;20049;-79
2022/03/15 07:09:14;;;;;;;34.75;20.30;;;5.20;50.90;;;;;;5071863;28;20033;-75
2022/03/15 07:11:53;;;;;;;43.35;24.80;;;5.40;51.10;;;;;;5073862;28;20036;-82
2022/03/15 07:14:21;;;;;;;32.65;17.73;;;5.50;51.50;;;;;;5072089;28;20032;-73
2022/03/15 07:17:04;;;;;;;30.17;17.33;;;5.60;51.60;;;;;;5071048;28;20120;-76
2022/03/15 07:19:31;;;;;;;27.85;15.13;;;5.80;52.10;;;;;;5091440;28;20047;-74
2022/03/15 07:21:57;;;;;;;29.00;15.35;;;5.90;51.80;;;;;;5054269;28;20123;-74
2022/03/15 07:24:27;;;;;;;28.40;17.45;;;6.10;52.10;;;;;;5071858;28;20389;-74
2022/03/15 07:26:54;;;;;;;29.30;16.63;;;6.30;51.70;;;;;;5084246;28;20113;-74
2022/03/15 07:29:20;;;;;;;;;;;6.50;51.70;;;;;;5092283;28;20029;-82
2022/03/15 07:32:07;;;;;;;32.72;17.65;;;6.70;51.10;;;;;;5091549;28;19927;-77
2022/03/15 07:34:33;;;;;;;27.55;16.13;;;7.00;50.70;;;;;;5092178;28;20028;-82
2022/03/15 07:37:00;;;;;;;28.90;17.40;;;7.20;50.40;;;;;;5091456;28;20062;-74
2022/03/15 07:39:26;;;;;;;38.50;22.48;;;7.50;50.10;;;;;;5078612;28;20460;-81
2022/03/15 07:42:12;;;;;;;29.58;16.90;;;7.80;49.70;;;;;;5081808;28;20484;-74
2022/03/15 07:44:42;;;;;;;31.07;16.77;;;8.00;49.40;;;;;;5074424;28;20105;-74
2022/03/15 07:47:13;;;;;;;30.10;16.52;;;8.10;49.10;;;;;;5074708;28;20082;-83
2022/03/15 07:49:39;;;;;;;32.63;16.13;;;8.30;49.20;;;;;;5075279;28;20042;-74
2022/03/15 07:52:05;;;;;;;28.02;16.02;;;8.60;48.80;;;;;;5082496;28;20082;-83
2022/03/15 07:54:33;;;;;;;24.90;14.85;;;8.80;47.90;;;;;;5071552;28;20039;-74
2022/03/15 07:57:37;;;;;;;28.00;17.13;;;9.00;48.20;;;;;;5071003;28;20040;-80
2022/03/15 08:00:08;;;;;;;23.70;12.85;;;9.30;47.80;;;;;;4995732;28;20046;-82
2022/03/15 08:02:35;;;;;;;25.92;14.82;;;9.60;47.00;;;;;;5030208;28;20144;-75
2022/03/15 08:05:10;;;;;;;28.92;17.20;;;9.90;46.70;;;;;;5014095;28;20410;-76
2022/03/15 08:07:36;;;;;;;30.83;13.25;;;10.20;46.30;;;;;;5029046;28;20053;-82
2022/03/15 08:10:22;;;;;;;;;;;10.40;46.00;;;;;;4997869;28;20083;-82
2022/03/15 08:13:14;;;;;;;25.65;13.57;;;10.50;46.20;;;;;;5011835;28;19920;-82
2022/03/15 08:15:43;;;;;;;23.15;13.70;;;10.70;45.40;;;;;;5030065;28;20037;-83
2022/03/15 08:18:10;;;;;;;22.65;13.85;;;10.90;45.10;;;;;;5031787;28;20050;-75
2022/03/15 08:20:39;;;;;;;;;;;11.00;45.00;;;;;;5017254;28;20041;-75
2022/03/15 08:23:10;;;;;;;22.17;12.43;;;11.20;44.70;;;;;;5017603;28;19928;-76
2022/03/15 08:25:36;;;;;;;20.17;12.15;;;11.60;43.80;;;;;;4981545;28;20104;-83
2022/03/15 08:28:05;;;;;;;;;;;11.90;42.80;;;;;;5014741;28;20490;-75
2022/03/15 08:30:31;;;;;;;22.15;11.80;;;12.20;43.70;;;;;;5057461;28;19920;-83
2022/03/15 08:32:58;;;;;;;31.13;17.00;;;12.50;42.40;;;;;;5093668;28;20479;-75
2022/03/15 08:35:24;;;;;;;21.92;11.80;;;12.90;41.80;;;;;;5096088;28;20044;-83
2022/03/15 08:37:55;;;;;;;24.60;14.07;;;13.00;41.00;;;;;;5094580;28;20451;-82
2022/03/15 08:40:23;;;;;;;19.95;11.95;;;13.10;40.70;;;;;;5093700;28;20032;-83
2022/03/15 08:43:08;;;;;;;21.38;13.07;;;13.60;39.80;;;;;;5096521;28;20093;-83
2022/03/15 08:45:36;;;;;;;22.17;12.90;;;13.90;39.00;;;;;;5093968;28;20028;-83
2022/03/15 08:48:06;;;;;;;19.63;11.23;;;14.30;38.90;;;;;;5094823;28;20040;-76
2022/03/15 08:50:35;;;;;;;19.25;11.05;;;14.50;38.10;;;;;;5080606;28;20035;-82
2022/03/15 08:53:25;;;;;;;;;;;;;;;;;;;;;
2022/03/15 08:56:09;;;;;;;21.77;11.15;;;15.00;37.30;;;;;;5095446;28;20024;-82
2022/03/15 08:59:06;;;;;;;17.27;10.45;;;15.40;36.60;;;;;;5093981;28;20048;-83
2022/03/15 09:01:33;;;;;;;19.13;11.00;;;15.80;35.90;;;;;;5078387;28;20102;-76
2022/03/15 09:04:11;;;;;;;16.15;9.75;;;16.00;35.10;;;;;;5094380;28;20116;-76
2022/03/15 09:06:57;;;;;;;19.02;11.20;;;16.30;34.30;;;;;;5092934;28;20139;-75
2022/03/15 09:09:27;;;;;;;16.15;9.02;;;16.70;34.10;;;;;;5090582;28;20020;-84
2022/03/15 09:11:53;;;;;;;22.17;9.60;;;16.90;33.90;;;;;;5092148;28;20032;-84
2022/03/15 09:14:20;;;;;;;17.40;8.15;;;17.20;32.50;;;;;;5095391;28;20116;-76
2022/03/15 09:16:46;;;;;;;14.05;8.15;;;17.10;32.60;;;;;;5093811;28;20036;-83
2022/03/15 09:19:35;;;;;;;12.93;7.70;;;17.10;32.40;;;;;;5093622;28;20438;-76
2022/03/15 09:22:18;;;;;;;15.05;7.38;;;17.30;32.30;;;;;;5075982;28;20147;-83
2022/03/15 09:25:08;;;;;;;13.43;7.55;;;17.60;31.50;;;;;;5058136;28;20031;-76
2022/03/15 09:27:50;;;;;;;13.05;7.30;;;17.90;30.80;;;;;;5074920;28;20086;-77
2022/03/15 09:30:24;;;;;;;12.43;7.03;;;18.00;30.50;;;;;;5071111;28;20075;-84
2022/03/15 09:32:50;;;;;;;13.18;6.68;;;18.40;30.00;;;;;;5074011;28;20439;-84
2022/03/15 09:35:17;;;;;;;13.20;6.55;;;18.70;29.90;;;;;;5073195;28;20145;-76
2022/03/15 09:37:46;;;;;;;11.93;6.50;;;18.90;29.60;;;;;;5080184;28;20473;-84
2022/03/15 09:40:13;;;;;;;12.98;7.10;;;19.10;28.90;;;;;;5093170;28;20077;-84
2022/03/15 09:42:58;;;;;;;10.30;5.55;;;19.20;28.80;;;;;;5094026;28;20048;-76
2022/03/15 09:45:34;;;;;;;11.70;6.80;;;19.30;28.20;;;;;;5093417;28;20027;-77
2022/03/15 09:48:36;;;;;;;9.57;5.20;;;19.30;28.30;;;;;;5073288;28;20033;-76
2022/03/15 09:51:09;;;;;;;10.50;6.03;;;19.50;28.10;;;;;;5056329;28;20457;-84
2022/03/15 09:53:43;;;;;;;11.48;6.82;;;19.60;27.30;;;;;;5103066;28;20119;-84
2022/03/15 09:56:10;;;;;;;10.40;6.13;;;19.70;27.30;;;;;;5092953;28;20538;-76
2022/03/15 09:58:46;;;;;;;12.23;6.80;;;19.90;27.10;;;;;;5094017;28;20119;-76
2022/03/15 10:01:31;;;;;;;12.05;6.53;;;20.00;27.10;;;;;;5094133;28;20040;-76
2022/03/15 10:03:59;;;;;;;16.73;6.55;;;20.30;27.00;;;;;;5094517;28;20078;-76
2022/03/15 10:06:26;;;;;;;11.85;7.07;;;20.40;26.60;;;;;;5091181;28;20048;-84
2022/03/15 10:09:02;;;;;;;;;;;20.60;26.60;;;;;;5056144;28;20032;-84
2022/03/15 10:11:29;;;;;;;13.85;8.25;;;20.40;26.80;;;;;;5073692;28;19912;-76
2022/03/15 10:13:55;;;;;;;10.55;6.45;;;20.40;26.40;;;;;;5056308;28;20052;-84
2022/03/15 10:16:43;;;;;;;11.45;6.43;;;20.10;26.60;;;;;;5056025;28;20040;-76
2022/03/15 10:19:16;;;;;;;11.48;7.00;;;19.80;26.70;;;;;;5092236;28;20115;-76
2022/03/15 10:22:04;;;;;;;14.90;7.38;;;20.10;26.70;;;;;;5092135;28;20123;-76
2022/03/15 10:24:30;;;;;;;12.45;6.45;;;20.00;26.50;;;;;;5075452;28;20039;-84
2022/03/15 10:27:17;;;;;;;14.05;7.30;;;19.90;26.70;;;;;;5080898;28;20497;-76
2022/03/15 10:29:53;;;;;;;11.70;7.20;;;19.70;27.00;;;;;;5040518;28;20512;-76
2022/03/15 10:32:19;;;;;;;12.45;6.28;;;19.70;26.80;;;;;;5072701;28;20086;-84
2022/03/15 10:34:45;;;;;;;12.57;6.68;;;20.00;26.70;;;;;;5072478;28;20029;-76
2022/03/15 10:37:11;;;;;;;;;;;20.70;25.80;;;;;;5073169;28;20028;-75
2022/03/15 10:39:39;;;;;;;12.30;7.68;;;21.30;25.90;;;;;;5090294;28;19923;-84
2022/03/15 10:42:14;;;;;;;14.38;6.68;;;21.70;25.00;;;;;;5092687;28;20262;-75
2022/03/15 10:44:43;;;;;;;14.75;6.63;;;22.10;24.80;;;;;;5093132;28;20039;-84
2022/03/15 10:47:18;;;;;;;11.75;6.55;;;22.10;24.40;;;;;;5071712;28;20048;-75
2022/03/15 10:50:04;;;;;;;12.68;7.18;;;22.10;24.50;;;;;;5072255;28;20028;-84
2022/03/15 10:52:50;;;;;;;9.52;6.40;;;21.80;25.00;;;;;;5071891;28;20043;-75
2022/03/15 10:55:34;;;;;;;13.15;7.03;;;21.40;25.20;;;;;;5091914;28;20047;-84
2022/03/15 10:58:05;;;;;;;13.93;6.70;;;21.30;25.40;;;;;;5072314;28;20040;-76
2022/03/15 11:00:53;;;;;;;9.60;5.55;;;21.30;25.20;;;;;;5071797;28;20043;-77
2022/03/15 11:03:29;;;;;;;10.48;5.72;;;21.00;25.00;;;;;;5070800;28;20063;-75
2022/03/15 11:06:45;;;;;;;10.13;5.70;;;20.80;25.10;;;;;;5085689;28;20040;-76
2022/03/15 11:09:32;;;;;;;10.75;6.22;;;20.20;25.50;;;;;;5092536;28;20397;-78
2022/03/15 11:12:08;;;;;;;10.63;6.47;;;19.90;25.90;;;;;;5075012;28;20028;-75
2022/03/15 11:14:57;;;;;;;10.50;6.10;;;19.90;25.90;;;;;;5074729;28;20056;-76
2022/03/15 11:17:26;;;;;;;13.38;7.78;;;19.80;26.00;;;;;;5071734;28;20064;-83
2022/03/15 11:20:00;;;;;;;12.98;7.43;;;19.80;26.20;;;;;;5088697;28;20053;-83
2022/03/15 11:22:46;;;;;;;10.57;7.18;;;19.70;26.40;;;;;;5071431;28;20036;-76
2022/03/15 11:25:19;;;;;;;10.82;6.60;;;19.80;26.20;;;;;;5075413;28;20033;-83
2022/03/15 11:27:51;;;;;;;11.77;6.70;;;19.80;26.20;;;;;;5072006;28;20123;-76
2022/03/15 11:30:24;;;;;;;11.95;7.03;;;19.60;26.40;;;;;;5071351;28;20035;-83
2022/03/15 11:32:56;;;;;;;12.15;6.75;;;19.40;26.50;;;;;;5071959;28;20278;-83
2022/03/15 11:35:23;;;;;;;12.27;7.45;;;19.30;26.80;;;;;;5082524;28;20564;-76
2022/03/15 11:37:53;;;;;;;14.15;7.43;;;19.20;26.90;;;;;;5092180;28;20070;-77
2022/03/15 11:40:20;;;;;;;20.00;7.80;;;19.20;26.80;;;;;;5092527;28;20036;-83
2022/03/15 11:43:14;;;;;;;11.90;7.20;;;19.10;27.00;;;;;;5074190;28;20047;-77
2022/03/15 11:45:48;;;;;;;14.38;8.82;;;19.00;26.80;;;;;;5071917;28;20115;-83
2022/03/15 11:48:53;;;;;;;21.85;11.82;;;18.90;26.80;;;;;;5073218;28;20032;-82
2022/03/15 11:51:34;;;;;;;13.07;8.10;;;18.90;27.00;;;;;;5054339;28;20040;-82
2022/03/15 11:54:20;;;;;;;19.10;12.57;;;18.80;27.20;;;;;;5081260;28;20381;-83
2022/03/15 11:56:53;;;;;;;14.00;9.30;;;18.80;26.90;;;;;;5078365;28;20523;-83
2022/03/15 11:59:20;;;;;;;17.00;7.47;;;18.80;27.00;;;;;;5096917;28;20028;-76
2022/03/15 12:01:55;;;;;;;13.02;6.47;;;18.80;27.50;;;;;;5094969;28;20036;-76
2022/03/15 12:04:44;;;;;;;11.65;6.07;;;18.70;27.80;;;;;;5078699;28;20063;-83
2022/03/15 12:07:11;;;;;;;15.57;5.93;;;18.60;27.60;;;;;;5094987;28;20451;-76
2022/03/15 12:09:47;;;;;;;10.02;5.93;;;18.40;27.40;;;;;;5074463;28;20046;-83
2022/03/15 12:12:16;;;;;;;9.02;5.80;;;18.30;28.30;;;;;;5075974;28;20056;-76
2022/03/15 12:14:48;;;;;;;10.18;5.40;;;18.40;27.90;;;;;;5077045;28;20508;-77
2022/03/15 12:17:15;;;;;;;11.30;5.70;;;18.30;27.90;;;;;;5095045;28;20039;-82
2022/03/15 12:19:50;;;;;;;10.25;5.90;;;18.30;28.10;;;;;;5074860;28;20032;-84
2022/03/15 12:22:36;;;;;;;9.93;6.13;;;18.20;28.10;;;;;;5075957;28;20458;-76
2022/03/15 12:25:35;;;;;;;9.27;5.13;;;18.30;28.30;;;;;;5089665;28;20040;-83
2022/03/15 12:28:04;;;;;;;9.18;5.32;;;18.20;28.40;;;;;;5058428;28;20070;-84
2022/03/15 12:30:31;;;;;;;14.15;5.38;;;18.10;28.60;;;;;;5074650;28;20112;-83
2022/03/15 12:32:58;;;;;;;10.80;6.22;;;18.00;28.40;;;;;;5078576;28;20051;-76
2022/03/15 12:35:27;;;;;;;10.25;5.30;;;18.00;28.60;;;;;;5073893;28;20543;-83
2022/03/15 12:38:13;;;;;;;11.43;5.55;;;17.90;28.30;;;;;;5074936;28;20046;-83
2022/03/15 12:41:06;;;;;;;9.00;5.13;;;18.00;28.60;;;;;;5092523;28;20685;-76
2022/03/15 12:43:40;;;;;;;10.43;5.32;;;18.00;28.50;;;;;;5091617;28;20031;-76
2022/03/15 12:46:09;;;;;;;12.63;5.30;;;18.00;28.60;;;;;;5094062;28;20069;-76
2022/03/15 12:48:37;;;;;;;10.07;4.63;;;17.90;28.50;;;;;;5094847;28;20032;-83
2022/03/15 12:51:16;;;;;;;11.02;5.70;;;17.90;28.40;;;;;;5089255;28;20032;-76
2022/03/15 12:53:48;;;;;;;9.23;5.70;;;18.10;28.80;;;;;;5058786;28;20056;-76
2022/03/15 12:56:19;;;;;;;;;;;18.20;28.60;;;;;;5094607;28;20111;-75
2022/03/15 12:58:45;;;;;;;8.75;5.47;;;18.40;28.00;;;;;;5094602;28;19916;-75
2022/03/15 13:01:12;;;;;;;;;;;18.50;28.10;;;;;;5075566;28;20507;-84
2022/03/15 13:03:42;;;;;;;10.67;5.30;;;18.60;28.00;;;;;;5057831;28;19920;-76
2022/03/15 13:06:20;;;;;;;8.98;4.95;;;18.60;28.20;;;;;;5072989;28;20515;-83
2022/03/15 13:09:14;;;;;;;11.52;4.97;;;18.70;28.30;;;;;;5074326;28;20122;-76
2022/03/15 13:12:02;;;;;;;8.40;4.97;;;18.60;28.50;;;;;;5074538;28;20115;-83